Time;durP1;ratioP1;P1;durP2;ratioP2;P2;SDS_P1;SDS_P2;PMS_P1;PMS_P2;Temp;Humidity;BMP_temperature;BMP_pressure;BME280_temperature;BME280_humidity;BME280_pressure;Samples;Min_cycle;Max_cycle;Signal;HPM_P1;HPM_P2
2022/04/30 00:00:08;;;;;;;7.07;2.35;;;;;;;7.78;57.44;100015.28;4959192;28;20546;-82
2022/04/30 00:02:40;;;;;;;4.00;2.10;;;;;;;7.74;57.38;100001.44;4951172;29;20051;-82
2022/04/30 00:05:06;;;;;;;3.83;2.10;;;;;;;7.48;56.72;99995.97;4972000;28;20093;-84
2022/04/30 00:07:31;;;;;;;;;;;;;;;7.72;57.37;100017.78;4945478;29;20067;-82
2022/04/30 00:09:57;;;;;;;4.18;2.28;;;;;;;7.47;56.69;99991.66;4978497;28;19918;-84
2022/04/30 00:12:25;;;;;;;5.13;2.40;;;;;;;7.77;56.11;99996.31;4948126;29;20035;-83
2022/04/30 00:14:50;;;;;;;4.72;2.00;;;;;;;7.87;55.76;99992.13;4966451;28;20541;-83
2022/04/30 00:17:16;;;;;;;3.58;2.03;;;;;;;8.03;55.73;100029.38;4973332;28;20031;-83
2022/04/30 00:19:42;;;;;;;5.45;2.28;;;;;;;7.68;56.18;100026.34;4963582;28;20079;-83
2022/04/30 00:22:09;;;;;;;5.25;2.80;;;;;;;7.34;57.58;100019.00;4967270;28;20141;-82
2022/04/30 00:24:38;;;;;;;5.82;2.58;;;;;;;7.20;57.32;100024.81;4955719;29;20027;-82
2022/04/30 00:27:04;;;;;;;4.18;2.20;;;;;;;7.01;58.73;100009.03;4950756;28;20018;-84
2022/04/30 00:29:29;;;;;;;;;;;;;;;7.22;58.21;100036.88;4953894;29;20026;-82
2022/04/30 00:31:56;;;;;;;4.70;2.30;;;;;;;7.22;57.40;100023.09;4981973;28;19914;-83
2022/04/30 00:34:21;;;;;;;4.20;1.95;;;;;;;7.11;58.23;100028.97;4956622;28;20102;-84
2022/04/30 00:36:47;;;;;;;4.28;2.00;;;;;;;7.00;57.59;100030.50;4979148;28;20485;-84
2022/04/30 00:39:13;;;;;;;;;;;;;;;7.12;57.27;100035.00;4946205;29;20042;-83
2022/04/30 00:41:43;;;;;;;3.72;2.30;;;;;;;6.94;57.22;100025.25;4946956;29;19973;-84
2022/04/30 00:44:09;;;;;;;5.45;2.50;;;;;;;6.94;57.97;100030.41;4977855;28;20510;-86
2022/04/30 00:46:34;;;;;;;4.93;2.10;;;;;;;6.92;57.16;100026.94;4977066;28;20032;-83
2022/04/30 00:49:01;;;;;;;4.45;2.35;;;;;;;6.63;57.85;100010.97;4943031;29;20418;-81
2022/04/30 00:51:27;;;;;;;5.63;2.40;;;;;;;6.75;57.91;100025.78;4975205;28;20035;-84
2022/04/30 00:53:54;;;;;;;6.13;2.22;;;;;;;6.72;58.18;100029.16;4957196;28;20049;-83
2022/04/30 00:56:32;;;;;;;4.47;2.20;;;;;;;6.58;59.08;100021.19;4949497;29;20126;-83
2022/04/30 00:58:58;;;;;;;5.82;2.28;;;;;;;6.45;58.95;100019.22;4968005;28;20058;-82
2022/04/30 01:01:24;;;;;;;7.00;2.40;;;;;;;6.45;58.29;100013.22;4983593;28;20055;-84
2022/04/30 01:04:08;;;;;;;4.15;2.05;;;;;;;6.40;58.45;100015.72;4947278;28;20430;-83
2022/04/30 01:06:37;;;;;;;4.28;2.40;;;;;;;6.39;58.99;100029.44;4950120;29;20043;-83
2022/04/30 01:09:02;;;;;;;4.45;2.00;;;;;;;6.25;59.26;100025.75;4947121;28;20069;-82
2022/04/30 01:11:29;;;;;;;4.82;2.15;;;;;;;6.30;59.21;100024.97;4949125;29;20047;-82
2022/04/30 01:13:55;;;;;;;3.47;1.98;;;;;;;6.36;59.37;100035.38;4939645;29;20061;-83
2022/04/30 01:16:21;;;;;;;6.35;1.95;;;;;;;6.21;59.27;100041.97;4956003;28;20525;-82
2022/04/30 01:18:46;;;;;;;2.92;1.90;;;;;;;6.18;60.16;100016.13;4951452;28;20098;-84
2022/04/30 01:21:13;;;;;;;3.92;1.70;;;;;;;6.42;59.75;100031.22;4942257;29;20051;-82
2022/04/30 01:23:42;;;;;;;5.13;2.17;;;;;;;6.36;58.47;100011.34;4933523;29;20416;-83
2022/04/30 01:26:13;;;;;;;7.72;2.40;;;;;;;6.22;58.63;100029.09;4962213;28;20054;-82
2022/04/30 01:28:41;;;;;;;5.15;2.58;;;;;;;5.95;60.74;100032.00;4965971;28;20039;-81
2022/04/30 01:39:30;;;;;;;5.90;3.03;;;;;;;5.26;64.23;100016.75;4969621;28;20090;-83
2022/04/30 01:41:56;;;;;;;5.38;2.80;;;;;;;5.21;64.44;100018.34;4956395;29;20031;-84
2022/04/30 01:44:22;;;;;;;4.82;2.65;;;;;;;5.42;64.63;100042.00;4933302;28;20058;-82
2022/04/30 01:46:48;;;;;;;8.57;3.15;;;;;;;5.40;63.59;100047.94;4948577;29;20035;-82
2022/04/30 01:49:19;;;;;;;5.85;3.33;;;;;;;5.32;64.69;100024.63;4949569;29;20441;-84
2022/04/30 01:51:49;;;;;;;8.77;4.55;;;;;;;5.45;64.39;100039.50;4960916;28;20035;-82
2022/04/30 01:54:17;;;;;;;7.63;3.40;;;;;;;5.51;63.80;100039.63;4969379;28;20138;-82
2022/04/30 01:56:48;;;;;;;4.95;2.63;;;;;;;5.62;62.91;100037.28;4950784;29;20462;-82
2022/04/30 01:59:18;;;;;;;4.20;2.70;;;;;;;5.68;61.98;100031.41;4978041;28;20430;-81
2022/04/30 02:01:53;;;;;;;4.32;2.40;;;;;;;5.73;62.50;100027.25;4965800;28;20095;-82
2022/04/30 02:04:19;;;;;;;4.63;2.65;;;;;;;5.61;61.56;100002.09;4938410;29;20027;-82
2022/04/30 02:06:45;;;;;;;5.50;2.60;;;;;;;5.83;62.05;100026.59;4978827;28;20027;-83
2022/04/30 02:09:12;;;;;;;4.35;2.60;;;;;;;5.81;61.09;100029.09;4970160;28;20061;-83
2022/04/30 02:11:38;;;;;;;5.20;2.47;;;;;;;5.65;60.75;100006.47;4949510;29;20054;-83
2022/04/30 02:17:03;;;;;;;5.30;2.33;;;;;;;6.14;60.96;100047.81;5002909;28;19968;-84
2022/04/30 02:19:29;;;;;;;5.07;2.88;;;;;;;5.88;60.11;100019.81;4985101;28;20116;-84
2022/04/30 02:21:57;;;;;;;4.22;2.25;;;;;;;5.90;60.10;100043.88;5033692;28;20054;-85
2022/04/30 02:24:25;;;;;;;4.85;2.20;;;;;;;5.97;60.76;100039.78;4999408;28;20038;-84
2022/04/30 02:26:51;;;;;;;5.65;2.60;;;;;;;5.85;59.84;100045.50;5004640;28;20044;-82
2022/04/30 02:29:26;;;;;;;5.93;2.50;;;;;;;5.93;61.01;100051.72;5020493;28;20048;-82
2022/04/30 02:31:53;;;;;;;6.75;2.25;;;;;;;5.83;59.71;100026.59;4998937;28;20112;-84
2022/04/30 02:34:18;;;;;;;6.88;4.32;;;;;;;5.79;59.94;100022.22;4984820;28;20461;-83
2022/04/30 02:36:44;;;;;;;4.97;2.58;;;;;;;6.21;58.60;100060.88;4999257;28;20026;-82
2022/04/30 02:39:10;;;;;;;7.10;2.20;;;;;;;6.02;58.07;100057.06;5004739;28;20046;-82
2022/04/30 02:41:44;;;;;;;5.82;1.95;;;;;;;5.88;60.48;100065.31;5005804;28;20492;-84
2022/04/30 02:44:10;;;;;;;4.75;2.30;;;;;;;5.82;59.51;100055.75;5037827;22;20492;-81
2022/04/30 02:46:36;;;;;;;6.18;2.17;;;;;;;5.54;59.50;100021.69;5027635;28;20056;-82
2022/04/30 02:49:02;;;;;;;6.22;2.22;;;;;;;5.79;59.57;100071.13;4986889;28;20038;-83
2022/04/30 02:51:28;;;;;;;4.85;2.22;;;;;;;5.75;59.12;100074.47;5036559;28;20060;-84
2022/04/30 02:53:54;;;;;;;4.72;2.50;;;;;;;5.66;59.51;100058.81;5054594;28;20040;-82
2022/04/30 02:56:20;;;;;;;4.65;1.90;;;;;;;5.80;60.25;100067.72;5022153;28;20055;-84
2022/04/30 03:01:31;;;;;;;6.10;2.17;;;;;;;5.93;59.05;100074.88;5043935;28;20091;-82
2022/04/30 03:04:19;;;;;;;6.10;2.05;;;;;;;6.16;58.85;100066.78;5030611;28;20551;-83
2022/04/30 03:06:46;;;;;;;8.00;2.22;;;;;;;6.00;56.84;100070.72;5008082;28;20045;-83
2022/04/30 03:09:12;;;;;;;3.83;1.80;;;;;;;5.68;59.21;100067.44;5042377;28;20052;-83
2022/04/30 03:11:38;;;;;;;;;;;;;;;5.72;59.19;100080.41;5007172;28;20040;-82
2022/04/30 03:14:03;;;;;;;3.85;2.20;;;;;;;5.32;58.43;100055.50;5040468;28;20015;-84
2022/04/30 03:21:58;;;;;;;4.53;1.80;;;;;;;5.70;58.22;100082.09;5015206;28;20109;-86
2022/04/30 03:24:27;;;;;;;12.75;4.10;;;;;;;5.55;57.86;100071.47;5017125;28;20059;-81
2022/04/30 03:26:52;;;;;;;7.25;3.03;;;;;;;5.61;58.28;100087.88;5003284;28;20038;-83
2022/04/30 03:29:19;;;;;;;5.22;2.17;;;;;;;5.50;58.19;100061.06;5034409;28;20088;-81
2022/04/30 03:31:45;;;;;;;4.18;1.90;;;;;;;5.75;58.12;100075.31;5019255;28;20050;-83
2022/04/30 03:34:12;;;;;;;;;;;;;;;5.84;57.03;100090.97;4987484;28;20037;-83
2022/04/30 03:36:39;;;;;;;3.30;1.63;;;;;;;5.72;56.92;100087.25;5019094;28;19921;-83
2022/04/30 03:39:04;;;;;;;3.47;1.95;;;;;;;5.55;56.67;100082.63;5019457;28;20046;-83
2022/04/30 03:41:30;;;;;;;4.22;1.83;;;;;;;5.60;57.98;100085.28;5008947;28;20043;-83
2022/04/30 03:43:56;;;;;;;5.03;2.40;;;;;;;5.69;56.97;100094.94;5020019;28;20091;-83
2022/04/30 03:46:22;;;;;;;9.18;3.08;;;;;;;5.60;57.28;100093.88;5039280;28;20148;-84
2022/04/30 03:48:53;;;;;;;5.97;2.05;;;;;;;5.52;56.40;100097.97;5008206;28;20053;-83
2022/04/30 03:51:22;;;;;;;3.40;1.63;;;;;;;5.39;57.76;100087.38;5006112;28;20134;-83
2022/04/30 03:53:49;;;;;;;4.07;1.70;;;;;;;5.74;57.28;100096.75;4980399;28;20078;-82
2022/04/30 03:56:17;;;;;;;3.30;1.60;;;;;;;5.78;56.53;100085.69;5044552;28;20028;-82
2022/04/30 03:58:44;;;;;;;4.45;1.73;;;;;;;5.83;55.12;100093.53;5025030;28;20071;-82
2022/04/30 04:01:11;;;;;;;4.97;2.03;;;;;;;5.76;55.41;100101.94;5003851;28;20118;-84
2022/04/30 04:03:36;;;;;;;4.25;1.80;;;;;;;5.48;55.45;100100.44;5045816;28;20045;-85
2022/04/30 04:06:03;;;;;;;9.23;2.10;;;;;;;5.35;56.20;100086.41;5026428;28;20045;-84
2022/04/30 04:08:29;;;;;;;7.35;2.10;;;;;;;5.19;56.49;100074.03;5033763;28;20049;-79
2022/04/30 04:10:55;;;;;;;6.43;2.10;;;;;;;5.63;56.41;100075.03;5043088;28;20056;-84
2022/04/30 04:18:54;;;;;;;8.05;2.10;;;;;;;5.53;56.18;100101.41;5031561;28;20044;-87
2022/04/30 04:21:20;;;;;;;3.92;2.00;;;;;;;5.45;56.38;100080.69;4980435;28;20056;-86
2022/04/30 04:26:30;;;;;;;5.28;1.80;;;;;;;5.39;56.40;100106.25;4990120;28;20057;-80
2022/04/30 04:28:56;;;;;;;11.05;2.45;;;;;;;5.26;56.63;100083.63;4992519;28;20796;-82
2022/04/30 04:31:24;;;;;;;6.72;2.75;;;;;;;5.57;55.53;100110.94;4980006;28;20088;-85
2022/04/30 04:33:50;;;;;;;9.93;2.83;;;;;;;5.84;55.52;100105.56;4997731;28;20386;-84
2022/04/30 04:36:16;;;;;;;6.35;1.90;;;;;;;5.92;54.94;100103.19;5000455;28;20038;-80
2022/04/30 04:38:43;;;;;;;4.05;2.20;;;;;;;6.16;54.07;100114.00;4999263;28;20042;-79
2022/04/30 04:41:08;;;;;;;6.38;2.10;;;;;;;6.42;53.38;100106.81;4996493;28;20054;-79
2022/04/30 04:43:34;;;;;;;6.75;2.20;;;;;;;6.51;54.32;100103.56;5001559;28;20132;-81
2022/04/30 04:46:01;;;;;;;5.05;1.90;;;;;;;6.73;52.10;100117.69;5016184;28;20037;-80
2022/04/30 04:48:26;;;;;;;3.88;1.75;;;;;;;6.45;52.12;100101.69;5015241;28;20492;-83
2022/04/30 04:50:52;;;;;;;6.45;2.00;;;;;;;6.46;53.01;100118.94;5000398;28;20041;-81
2022/04/30 04:53:18;;;;;;;2.42;1.65;;;;;;;6.08;53.46;100093.22;4999865;28;20049;-81
2022/04/30 04:55:43;;;;;;;2.88;1.60;;;;;;;6.05;53.29;100100.91;4968711;28;20038;-81
2022/04/30 04:58:09;;;;;;;8.07;1.70;;;;;;;6.09;52.24;100102.72;5015355;28;20523;-81
2022/04/30 05:00:35;;;;;;;4.60;1.35;;;;;;;6.11;51.66;100116.47;4983534;28;20162;-80
2022/04/30 05:03:00;;;;;;;2.80;1.20;;;;;;;6.24;52.56;100094.44;5017483;28;20045;-82
2022/04/30 05:05:26;;;;;;;3.03;1.00;;;;;;;6.58;50.05;100108.84;4985527;28;20041;-83
2022/04/30 05:07:52;;;;;;;3.90;1.00;;;;;;;6.72;50.26;100123.69;5012066;28;20041;-80
2022/04/30 05:10:18;;;;;;;3.22;1.40;;;;;;;7.25;49.25;100128.94;5002538;28;20045;-80
2022/04/30 05:12:46;;;;;;;3.63;1.70;;;;;;;6.93;49.45;100131.84;5014652;28;20041;-82
2022/04/30 05:15:12;;;;;;;4.07;1.05;;;;;;;6.79;49.53;100122.97;5003285;28;20443;-81
2022/04/30 05:17:38;;;;;;;3.28;1.42;;;;;;;6.77;49.53;100115.19;4999910;28;20103;-82
2022/04/30 05:20:05;;;;;;;4.20;1.38;;;;;;;6.96;51.46;100128.44;5001026;28;20042;-84
2022/04/30 05:22:31;;;;;;;4.05;1.50;;;;;;;6.76;48.91;100125.50;4978957;28;20034;-81
2022/04/30 05:24:56;;;;;;;2.13;1.45;;;;;;;6.71;50.01;100130.56;5014950;28;20048;-81
2022/04/30 05:27:22;;;;;;;4.20;1.30;;;;;;;6.71;49.62;100124.53;5017654;28;20068;-82
2022/04/30 05:29:48;;;;;;;3.97;1.48;;;;;;;6.81;48.68;100126.44;5015515;28;20045;-82
2022/04/30 05:32:14;;;;;;;6.20;1.92;;;;;;;7.19;51.01;100128.81;4991239;28;20034;-81
2022/04/30 05:34:39;;;;;;;6.07;1.20;;;;;;;7.39;46.28;100127.47;5023048;28;20125;-81
2022/04/30 05:37:05;;;;;;;3.00;1.40;;;;;;;7.58;46.22;100114.00;5026366;28;20122;-83
2022/04/30 05:39:31;;;;;;;;;;;;;;;7.72;44.77;100121.06;5012559;28;20069;-83
2022/04/30 05:41:57;;;;;;;1.85;1.10;;;;;;;7.29;45.30;100112.69;5007836;28;19914;-80
2022/04/30 05:44:24;;;;;;;3.70;1.17;;;;;;;6.91;45.64;100099.97;5006612;28;20412;-84
2022/04/30 05:46:50;;;;;;;6.72;1.25;;;;;;;6.82;45.12;100100.69;5009273;28;20047;-85
2022/04/30 05:49:17;;;;;;;3.65;1.23;;;;;;;7.09;44.56;100113.19;5014496;28;20041;-86
2022/04/30 05:51:43;;;;;;;4.55;1.27;;;;;;;7.22;44.64;100127.16;4993227;28;20034;-85
2022/04/30 05:54:09;;;;;;;;;;;;;;;7.27;44.52;100132.41;4997974;28;20080;-84
2022/04/30 05:56:35;;;;;;;3.55;1.20;;;;;;;7.29;44.07;100112.69;5008347;28;19913;-86
2022/04/30 05:59:00;;;;;;;;;;;;;;;7.41;41.83;100128.34;4970822;28;20041;-86
2022/04/30 06:01:27;;;;;;;2.42;1.50;;;;;;;7.42;41.26;100091.34;5017850;28;19914;-85
2022/04/30 06:03:53;;;;;;;3.97;1.30;;;;;;;7.70;40.59;100126.22;5001764;28;20046;-86
2022/04/30 06:06:20;;;;;;;2.75;1.40;;;;;;;8.03;40.56;100112.91;4996398;28;20034;-85
2022/04/30 06:08:46;;;;;;;4.78;1.70;;;;;;;8.42;40.71;100116.88;4999329;28;20057;-84
2022/04/30 06:11:11;;;;;;;;;;;;;;;8.76;38.62;100118.13;5000743;28;20076;-84
2022/04/30 06:13:37;;;;;;;3.60;1.45;;;;;;;8.86;40.94;100104.44;5020448;28;19917;-85
2022/04/30 06:16:03;;;;;;;;;;;;;;;8.77;37.65;100113.81;4996074;28;20394;-85
2022/04/30 06:18:29;;;;;;;1.60;1.00;;;;;;;8.70;38.08;100118.03;5017056;28;19921;-83
2022/04/30 06:20:55;;;;;;;2.78;0.98;;;;;;;8.68;37.93;100113.72;4989013;28;20033;-85
2022/04/30 06:23:21;;;;;;;2.03;1.10;;;;;;;9.31;36.74;100117.78;4989329;28;20077;-82
2022/04/30 06:25:47;;;;;;;3.30;1.10;;;;;;;9.66;36.14;100107.66;4978269;28;20184;-79
2022/04/30 06:28:13;;;;;;;2.40;1.00;;;;;;;9.82;34.59;100108.66;4993254;28;20046;-78
2022/04/30 06:30:39;;;;;;;2.63;1.10;;;;;;;9.40;34.02;100107.50;4993335;28;20030;-79
2022/04/30 06:33:06;;;;;;;6.60;1.05;;;;;;;8.99;34.70;100089.03;4997177;28;20065;-80
2022/04/30 06:35:32;;;;;;;1.48;0.90;;;;;;;9.05;34.67;100105.47;4981921;28;20066;-80
2022/04/30 06:37:58;;;;;;;3.38;1.33;;;;;;;9.16;36.40;100111.63;4981949;28;20489;-80
2022/04/30 06:40:24;;;;;;;2.17;1.00;;;;;;;9.22;35.27;100107.34;4989003;28;20041;-80
2022/04/30 06:42:50;;;;;;;4.82;1.10;;;;;;;9.34;34.40;100103.13;5025860;28;20460;-83
2022/04/30 06:45:17;;;;;;;;;;;;;;;9.37;34.29;100110.06;4986019;28;20057;-80
2022/04/30 06:47:43;;;;;;;2.20;1.00;;;;;;;9.23;34.06;100106.50;5011172;28;20292;-82
2022/04/30 06:50:09;;;;;;;2.13;1.20;;;;;;;9.52;36.23;100112.75;4985864;28;20137;-80
2022/04/30 06:52:35;;;;;;;3.78;1.10;;;;;;;9.84;35.43;100088.78;5019634;28;20042;-80
2022/04/30 06:57:47;;;;;;;1.98;1.00;;;;;;;10.03;32.58;100077.66;5007443;28;20042;-79
2022/04/30 07:03:11;;;;;;;3.20;1.23;;;;;;;10.24;34.73;100105.44;4983891;28;20500;-79
2022/04/30 07:05:36;;;;;;;5.68;1.92;;;;;;;10.28;33.27;100090.78;5000270;28;20041;-81
2022/04/30 07:08:02;;;;;;;;;;;;;;;10.73;34.30;100108.22;5000839;28;20053;-81
2022/04/30 07:10:28;;;;;;;2.40;0.90;;;;;;;10.92;31.40;100101.31;5026767;28;19971;-78
2022/04/30 07:12:53;;;;;;;;;;;;;;;10.86;30.30;100115.16;5017987;28;20046;-79
2022/04/30 07:15:19;;;;;;;2.72;1.00;;;;;;;10.65;30.71;100103.00;5008433;28;19917;-81
2022/04/30 07:17:46;;;;;;;3.58;1.00;;;;;;;10.56;32.87;100108.16;5008993;28;20045;-80
2022/04/30 07:20:12;;;;;;;4.53;0.88;;;;;;;10.67;31.30;100111.66;5033742;28;20037;-79
2022/04/30 07:22:38;;;;;;;;;;;;;;;10.71;30.25;100107.31;5010803;28;20554;-79
2022/04/30 07:25:05;;;;;;;2.30;1.20;;;;;;;10.79;31.98;100102.16;5032173;28;20015;-79
2022/04/30 07:27:31;;;;;;;2.22;1.00;;;;;;;10.82;30.76;100107.38;5012958;28;20412;-79
2022/04/30 07:29:56;;;;;;;;;;;;;;;11.05;30.44;100105.66;5030134;28;20033;-79
2022/04/30 07:32:22;;;;;;;3.85;1.10;;;;;;;11.06;30.02;100099.59;5011034;28;19917;-84
2022/04/30 07:34:48;;;;;;;;;;;;;;;11.23;31.79;100111.75;5014291;28;20029;-83
2022/04/30 07:37:14;;;;;;;1.83;0.90;;;;;;;11.01;29.80;100106.53;5012678;28;19897;-81
2022/04/30 07:39:39;;;;;;;;;;;;;;;10.98;31.66;100109.09;4984664;28;20053;-82
2022/04/30 07:42:06;;;;;;;3.55;1.05;;;;;;;10.88;31.91;100095.25;5002556;28;20000;-81
2022/04/30 07:44:31;;;;;;;;;;;;;;;11.15;32.76;100112.59;5028708;28;20029;-82
2022/04/30 07:46:58;;;;;;;5.65;1.52;;;;;;;11.23;32.31;100102.22;5015556;28;20319;-79
2022/04/30 07:49:24;;;;;;;2.30;1.00;;;;;;;11.01;30.15;100113.44;5015482;28;20040;-78
2022/04/30 07:51:55;;;;;;;2.25;1.10;;;;;;;11.01;31.33;100080.56;5015518;28;20041;-80
2022/04/30 07:54:21;;;;;;;5.28;1.50;;;;;;;10.86;32.56;100101.31;5000751;28;20096;-78
2022/04/30 07:56:50;;;;;;;3.58;1.80;;;;;;;10.46;32.58;100119.38;4980817;28;20034;-77
2022/04/30 07:59:16;;;;;;;5.00;1.20;;;;;;;10.39;31.57;100109.81;4982294;28;20472;-81
2022/04/30 08:01:42;;;;;;;;;;;;;;;10.53;31.88;100123.69;4998347;28;20068;-77
2022/04/30 08:04:08;;;;;;;6.57;1.50;;;;;;;10.64;33.23;100118.56;4997287;28;19917;-77
2022/04/30 08:06:33;;;;;;;;;;;;;;;10.99;33.44;100123.81;4998460;28;20041;-77
2022/04/30 08:08:59;;;;;;;4.40;1.10;;;;;;;10.75;31.54;100110.78;5010341;28;20343;-78
2022/04/30 08:11:25;;;;;;;4.15;1.30;;;;;;;10.87;30.78;100119.47;4987906;28;20061;-77
2022/04/30 08:13:51;;;;;;;3.38;1.17;;;;;;;10.69;30.41;100104.72;4997981;28;20049;-77
2022/04/30 08:16:16;;;;;;;;;;;;;;;11.00;29.61;100120.38;4997645;28;20144;-78
2022/04/30 08:18:42;;;;;;;2.78;1.45;;;;;;;10.90;29.84;100103.03;5015095;28;19924;-78
2022/04/30 08:21:08;;;;;;;4.18;2.75;;;;;;;11.11;31.16;100100.47;5013960;28;20049;-77
2022/04/30 08:23:34;;;;;;;;;;;;;;;11.27;29.41;100108.25;4998725;28;20088;-78
2022/04/30 08:26:01;;;;;;;4.28;1.23;;;;;;;10.96;30.20;100084.88;5010957;28;20454;-80
2022/04/30 08:28:27;;;;;;;5.00;1.40;;;;;;;10.92;29.03;100106.50;4978757;28;20041;-78
2022/04/30 08:30:53;;;;;;;3.97;1.27;;;;;;;10.47;30.27;100087.38;5031674;28;20029;-81
2022/04/30 08:33:18;;;;;;;;;;;;;;;10.45;30.30;100104.66;4999063;28;20103;-78
2022/04/30 08:35:44;;;;;;;5.07;1.20;;;;;;;10.36;31.16;100105.50;5007848;28;19913;-77
2022/04/30 08:38:10;;;;;;;4.43;1.92;;;;;;;10.16;30.13;100087.22;4998189;28;20397;-78
2022/04/30 08:40:36;;;;;;;5.93;1.33;;;;;;;10.05;30.11;100077.69;4998661;28;20459;-81
2022/04/30 08:43:09;;;;;;;3.60;1.30;;;;;;;10.30;30.52;100092.50;4981274;28;20034;-80
2022/04/30 08:45:36;;;;;;;7.20;1.55;;;;;;;10.64;30.20;100109.06;5002090;28;20096;-81
2022/04/30 08:48:03;;;;;;;3.35;1.10;;;;;;;10.57;30.09;100083.06;5015848;28;20038;-80
2022/04/30 08:50:29;;;;;;;2.85;1.20;;;;;;;10.57;30.23;100096.03;4988855;28;20088;-81
2022/04/30 08:52:56;;;;;;;1.25;0.90;;;;;;;10.12;30.05;100085.47;4984723;28;20042;-80
2022/04/30 08:55:21;;;;;;;4.88;1.10;;;;;;;10.03;30.63;100087.16;5016346;28;20061;-79
2022/04/30 08:57:47;;;;;;;;;;;;;;;10.36;30.71;100104.63;4967757;28;20022;-81
2022/04/30 09:00:14;;;;;;;2.60;1.20;;;;;;;10.72;31.07;100097.81;4998503;28;20372;-78
2022/04/30 09:02:53;;;;;;;3.05;1.55;;;;;;;10.91;31.27;100099.59;4997707;28;20416;-78
2022/04/30 09:05:19;;;;;;;4.53;1.45;;;;;;;11.08;30.17;100091.81;5014281;28;20077;-79
2022/04/30 09:07:54;;;;;;;;;;;;;;;11.50;31.01;100092.66;4982209;28;20038;-82
2022/04/30 09:10:24;;;;;;;5.80;1.00;;;;;;;11.51;27.68;100082.28;4988000;28;19917;-79
2022/04/30 09:12:52;;;;;;;3.70;1.17;;;;;;;11.84;28.65;100098.72;5013048;28;20041;-79
2022/04/30 09:15:17;;;;;;;6.93;1.83;;;;;;;11.94;27.97;100077.03;5014358;28;20063;-80
2022/04/30 09:17:44;;;;;;;;;;;;;;;12.03;26.33;100097.78;4998418;28;20050;-78
2022/04/30 09:20:17;;;;;;;1.85;1.10;;;;;;;11.75;26.40;100080.50;4994998;28;19925;-79
2022/04/30 09:22:42;;;;;;;6.43;2.38;;;;;;;11.90;28.26;100085.69;5010167;28;20080;-79
2022/04/30 09:25:12;;;;;;;;;;;;;;;12.49;26.73;100092.41;5008081;28;20631;-81
2022/04/30 09:27:44;;;;;;;2.22;1.25;;;;;;;13.28;25.62;100074.53;4990547;28;19921;-81
2022/04/30 09:30:17;;;;;;;3.50;1.10;;;;;;;13.86;25.42;100074.00;5015390;28;20064;-80
2022/04/30 09:32:42;;;;;;;2.20;1.10;;;;;;;13.86;26.13;100077.47;4981479;28;20126;-79
2022/04/30 09:38:02;;;;;;;4.00;1.13;;;;;;;14.43;26.09;100082.88;5011698;28;19918;-81
2022/04/30 09:40:30;;;;;;;;;;;;;;;14.60;23.69;100082.66;4992584;28;20507;-79
2022/04/30 09:42:56;;;;;;;3.10;1.00;;;;;;;14.45;24.95;100054.13;4998583;28;19918;-78
2022/04/30 09:45:26;;;;;;;;;;;;;;;14.80;25.48;100076.28;4993389;28;20048;-77
2022/04/30 09:47:53;;;;;;;2.53;1.23;;;;;;;14.68;25.43;100073.00;5022330;28;19921;-78
2022/04/30 09:55:52;;;;;;;2.60;1.33;;;;;;;13.33;25.53;100067.56;4999226;28;20052;-78
2022/04/30 09:58:23;;;;;;;1.60;0.82;;;;;;;12.55;25.48;100071.53;5012556;28;20452;-78
2022/04/30 10:00:49;;;;;;;3.85;2.33;;;;;;;11.95;27.36;100055.34;4996370;28;20053;-77
2022/04/30 10:03:15;;;;;;;;;;;;;;;11.84;26.75;100075.31;5013606;28;20037;-79
2022/04/30 10:05:41;;;;;;;3.22;1.48;;;;;;;11.85;27.46;100062.31;5011009;28;20007;-79
2022/04/30 10:08:06;;;;;;;;;;;;;;;12.00;26.90;100071.78;5004681;28;20113;-77
2022/04/30 10:10:43;;;;;;;4.85;1.33;;;;;;;12.74;25.81;100067.13;4995153;28;19984;-78
2022/04/30 10:13:36;;;;;;;2.55;0.90;;;;;;;13.96;23.91;100066.03;4984153;28;20611;-77
2022/04/30 10:16:02;;;;;;;1.90;0.98;;;;;;;14.56;23.61;100057.47;5016240;28;20062;-78
2022/04/30 10:18:34;;;;;;;;;;;;;;;15.25;22.81;100054.66;4988435;28;20476;-78
2022/04/30 10:21:02;;;;;;;1.83;1.00;;;;;;;15.54;22.33;100062.91;5014843;28;19917;-78
2022/04/30 10:23:29;;;;;;;3.92;1.50;;;;;;;14.99;23.20;100062.09;5000601;28;20511;-77
2022/04/30 10:26:05;;;;;;;3.13;1.00;;;;;;;14.46;22.88;100055.84;5001237;28;20042;-78
2022/04/30 10:28:31;;;;;;;4.40;1.10;;;;;;;13.76;23.25;100035.88;5016569;28;20562;-77
2022/04/30 10:31:06;;;;;;;;;;;;;;;13.40;23.31;100056.22;5017098;28;20037;-78
2022/04/30 10:33:33;;;;;;;2.58;1.10;;;;;;;13.05;24.82;100046.91;5005562;28;19917;-77
2022/04/30 10:36:18;;;;;;;3.03;1.00;;;;;;;13.21;25.17;100048.53;4999855;28;20121;-77
2022/04/30 10:38:53;;;;;;;8.45;1.48;;;;;;;13.09;24.72;100055.56;4967741;28;20389;-77
2022/04/30 10:41:19;;;;;;;5.30;1.88;;;;;;;12.93;25.17;100060.06;4999638;28;20052;-77
2022/04/30 10:43:45;;;;;;;;;;;;;;;13.01;24.72;100060.81;5008486;28;20503;-78
2022/04/30 10:46:14;;;;;;;4.25;1.17;;;;;;;12.95;24.43;100055.69;4993974;28;20393;-78
2022/04/30 10:48:49;;;;;;;4.63;1.58;;;;;;;12.96;25.73;100054.78;5015614;28;20431;-78
2022/04/30 10:51:15;;;;;;;4.85;1.40;;;;;;;12.78;24.25;100042.78;4999238;28;20504;-77
2022/04/30 10:53:45;;;;;;;3.38;1.40;;;;;;;12.82;24.86;100051.44;5020867;28;20416;-77
2022/04/30 10:56:12;;;;;;;4.22;1.20;;;;;;;12.85;24.10;100023.63;5023098;28;20705;-78
2022/04/30 10:58:38;;;;;;;3.10;1.40;;;;;;;13.72;23.39;100041.09;4999417;28;20037;-78
2022/04/30 11:01:17;;;;;;;2.22;1.27;;;;;;;14.03;22.55;100045.97;4999228;28;20508;-79
2022/04/30 11:03:49;;;;;;;2.65;1.30;;;;;;;15.20;22.27;100035.59;5017268;28;20053;-79
2022/04/30 11:06:25;;;;;;;2.28;1.20;;;;;;;15.89;21.70;100038.72;5000045;28;20045;-77
2022/04/30 11:09:08;;;;;;;1.50;0.80;;;;;;;15.75;20.08;100021.53;5017329;28;20045;-76
2022/04/30 11:11:34;;;;;;;1.90;0.70;;;;;;;15.27;21.17;100033.75;5015254;28;20064;-78
2022/04/30 11:14:05;;;;;;;2.88;0.85;;;;;;;14.62;21.14;100023.47;4999386;28;20385;-76
2022/04/30 11:16:35;;;;;;;2.22;0.88;;;;;;;14.49;21.63;100025.41;4999839;28;20046;-81
2022/04/30 11:19:07;;;;;;;4.90;1.30;;;;;;;14.22;22.18;100028.34;4982950;28;20116;-78
2022/04/30 11:21:35;;;;;;;2.13;0.90;;;;;;;13.97;22.11;100030.38;4998275;28;20444;-78
2022/04/30 11:24:01;;;;;;;4.05;1.30;;;;;;;14.06;22.67;100032.03;5015345;28;20408;-79
2022/04/30 11:26:39;;;;;;;1.85;1.08;;;;;;;13.89;22.61;100027.03;5015248;28;20456;-78
2022/04/30 11:29:12;;;;;;;2.10;1.15;;;;;;;13.86;22.09;100009.66;5014710;28;20052;-78
2022/04/30 11:31:38;;;;;;;4.35;1.40;;;;;;;13.64;23.06;100021.22;5015396;28;20041;-78
2022/04/30 11:34:09;;;;;;;;;;;;;;;13.42;23.15;100021.47;4998760;28;20104;-77
2022/04/30 11:36:40;;;;;;;4.60;1.20;;;;;;;13.24;22.95;100026.84;5015725;28;20387;-77
2022/04/30 11:39:05;;;;;;;3.20;1.08;;;;;;;13.62;23.21;100017.78;4982111;28;20037;-77
2022/04/30 11:41:36;;;;;;;;;;;;;;;14.09;23.08;100019.81;5014684;28;20037;-76
2022/04/30 11:44:05;;;;;;;5.45;1.10;;;;;;;14.27;23.49;100005.66;5015680;28;20354;-79
2022/04/30 11:46:31;;;;;;;1.80;0.98;;;;;;;14.51;22.13;100021.88;5014787;28;20125;-76
2022/04/30 11:48:57;;;;;;;;;;;;;;;14.74;21.52;100020.66;5016537;28;20045;-77
2022/04/30 11:51:26;;;;;;;3.50;1.08;;;;;;;14.78;22.31;99994.50;5010925;28;19920;-81
2022/04/30 11:53:52;;;;;;;2.70;1.10;;;;;;;14.67;21.79;99995.53;4983896;28;20084;-78
2022/04/30 11:56:17;;;;;;;;;;;;;;;15.16;22.97;100013.00;5009816;28;20029;-78
2022/04/30 11:58:43;;;;;;;2.92;0.95;;;;;;;14.81;20.59;99974.44;5015460;28;19918;-77
2022/04/30 12:01:29;;;;;;;;;;;;;;;14.37;20.68;100014.22;4988171;28;20044;-78
2022/04/30 12:04:04;;;;;;;4.10;1.00;;;;;;;14.07;22.44;100012.91;5001824;28;19917;-79
2022/04/30 12:06:31;;;;;;;2.83;1.42;;;;;;;13.94;22.99;100009.56;5014268;28;20046;-77
2022/04/30 12:08:57;;;;;;;1.92;1.15;;;;;;;13.93;22.68;100007.84;4991506;28;20485;-78
2022/04/30 12:11:22;;;;;;;;;;;;;;;14.24;22.80;100001.34;5008728;28;20048;-78
2022/04/30 12:13:58;;;;;;;;;;;;;;;14.22;23.12;100010.09;5015890;28;19917;-77
2022/04/30 12:16:23;;;;;;;;;;;;;;;14.42;23.17;100010.66;5021111;28;19929;-77
2022/04/30 12:24:43;;;;;;;;;;;;;;;15.23;20.59;100001.56;5000978;28;19917;-77
2022/04/30 12:27:10;;;;;;;;;;;;;;;15.02;20.82;99998.47;5013865;28;19969;-76
2022/04/30 12:29:36;;;;;;;;;;;;;;;14.57;21.01;100007.03;5001156;28;20455;-76